Гаровка 2-я

Карта отелей и гостиниц, располагающихся рядом с аэропортом Гаровка 2-я :



Гаровка 2-я Хабаровский край 48° 23' 46.6116" N, 135° 13' 25.6188" E

Гаровка 2-я Хабаровский край 48° 23' 46.6116" N, 135° 13' 25.6188" E
Код аэродрома ИКАО: 
XHHG
Код аэродрома RU: 
ЬХХГ
Координаты: 
N48.39628° E135.22378°
Превышение над уровнем моря : 
72
Основная полоса: 
04/22
Курс магнитный: 
041,1/221,1
Длина основной ВПП: 
2300
Ширина основной ВПП: 
37
Покрытие основной ВПП: 
Твёрдое (бетон)
Тип: 
Аэродром
Освещение ВПП: 
Нет
Класс аэродрома: 
Статус: 
Действующий
Принадлежность: 
МО
Сайт: 
E-mail аэродрома: 
Страна: 
Россия
Регион: 
Хабаровский край
Город: 
Дополнительная информация: 
Оператор: ВКС России. Ранее базировался 825-й овп.

Найти трансфер

С помощью этой формы Вы можете найти трансфер из аэропорта Гаровка 2-я в город, аэропорт или вокзал:

Карта места

Javascript is required to view this map.

Погода в аэропортах:

Авиационная погода в Вадсё

Регион: 
Погода METAR: 
ENVD 210350Z 19011KT 9999 -SN BKN013 M05/M07 Q0987
Время наблюдения: 
2020-02-21T03:50:00Z
Температура C: 
-5.0
Точка росы: 
-7.0
Направление ветра: 
190
Скорость ветра: 
11
Метеорологическая видимость: 
6.21
Явления погоды: 
-SN
Условия полета: 
MVFR

Авиационная погода в Череповце

Регион: 
Погода METAR: 
ULWC 210400Z 00000MPS 2200 -SNRA BR OVC002 00/M00 Q1016 R21/490150 BECMG 3100 BR BKN003 RMK QBB060 QFE752/1003
Время наблюдения: 
2020-02-21T04:00:00Z
Температура C: 
0.0
Точка росы: 
0.0
Направление ветра: 
0
Скорость ветра: 
0
Метеорологическая видимость: 
1.37
Явления погоды: 
-SN -RA BR
Условия полета: 
LIFR
Аэропорт подробнее: 

Авиационная погода в Каяани

Регион: 
Погода METAR: 
EFKI 210350Z 18017KT 150V220 9999 -SN OVC013 M01/M04 Q0998
Время наблюдения: 
2020-02-21T03:50:00Z
Температура C: 
-1.0
Точка росы: 
-4.0
Направление ветра: 
180
Скорость ветра: 
17
Метеорологическая видимость: 
6.21
Явления погоды: 
-SN
Условия полета: 
MVFR

Авиационная погода в Емельяново

Регион: 
Погода METAR: 
UNKL 210400Z 22003MPS 170V240 4300 -SN SCT047 M02/M05 Q1018 R29/490235 NOSIG RMK QFE738
Время наблюдения: 
2020-02-21T04:00:00Z
Температура C: 
-2.0
Точка росы: 
-5.0
Направление ветра: 
220
Скорость ветра: 
6
Метеорологическая видимость: 
2.67
Явления погоды: 
-SN
Условия полета: 
IFR
Аэропорт подробнее: